createdAt,value
2017-11-14T00:00:10.922Z,0
2017-11-14T00:00:51.453Z,0
2017-11-14T00:01:31.969Z,0
2017-11-14T00:02:12.483Z,0
2017-11-14T00:02:52.998Z,0
2017-11-14T00:03:33.532Z,0
2017-11-14T00:04:14.092Z,0
2017-11-14T00:04:54.617Z,0
2017-11-14T00:05:35.143Z,0
2017-11-14T00:06:15.685Z,0
2017-11-14T00:06:56.215Z,0
2017-11-14T00:07:36.725Z,0
2017-11-14T00:08:17.246Z,0
2017-11-14T00:08:57.783Z,0
2017-11-14T00:09:38.289Z,0
2017-11-14T00:10:18.825Z,0
2017-11-14T00:10:59.346Z,0
2017-11-14T00:11:39.873Z,0
2017-11-14T00:12:20.380Z,0
2017-11-14T00:13:00.914Z,0
2017-11-14T00:13:41.457Z,0
2017-11-14T00:14:21.970Z,0
2017-11-14T00:15:02.494Z,0
2017-11-14T00:15:43.028Z,0
2017-11-14T00:16:23.603Z,0
2017-11-14T00:17:04.095Z,0
2017-11-14T00:17:44.624Z,0
2017-11-14T00:18:25.138Z,0
2017-11-14T00:19:05.643Z,0
2017-11-14T00:19:46.168Z,0
2017-11-14T00:20:26.689Z,0
2017-11-14T00:21:07.196Z,0
2017-11-14T00:21:47.723Z,0
2017-11-14T00:22:28.262Z,0
2017-11-14T00:23:08.792Z,0
2017-11-14T00:23:49.324Z,0
2017-11-14T00:24:29.855Z,0
2017-11-14T00:25:10.382Z,0
2017-11-14T00:25:50.901Z,0
2017-11-14T00:26:31.425Z,0
2017-11-14T00:27:11.945Z,0
2017-11-14T00:27:52.464Z,0
2017-11-14T00:28:32.991Z,0
2017-11-14T00:29:13.528Z,0
2017-11-14T00:29:54.053Z,0
2017-11-14T00:30:34.593Z,0
2017-11-14T00:31:15.090Z,0
2017-11-14T00:31:55.630Z,0
2017-11-14T00:32:36.154Z,0
2017-11-14T00:33:16.678Z,0
2017-11-14T00:33:57.194Z,0
2017-11-14T00:34:37.717Z,0
2017-11-14T00:35:18.243Z,0
2017-11-14T00:35:58.767Z,0
2017-11-14T00:36:39.296Z,0
2017-11-14T00:37:19.832Z,0
2017-11-14T00:38:00.353Z,0
2017-11-14T00:38:40.865Z,0
2017-11-14T00:39:21.380Z,0
2017-11-14T00:40:01.918Z,0
2017-11-14T00:40:42.445Z,0
2017-11-14T00:41:22.957Z,0
2017-11-14T00:42:03.482Z,0
2017-11-14T00:42:44.010Z,0
2017-11-14T00:43:24.526Z,0
2017-11-14T00:44:05.061Z,0
2017-11-14T00:44:45.587Z,0
2017-11-14T00:45:26.113Z,0
2017-11-14T00:46:06.629Z,0
2017-11-14T00:46:47.140Z,0
2017-11-14T00:47:27.669Z,0
2017-11-14T00:48:08.203Z,0
2017-11-14T00:48:48.728Z,0
2017-11-14T00:49:29.250Z,0
2017-11-14T00:50:09.785Z,0
2017-11-14T00:50:50.301Z,0
2017-11-14T00:51:30.815Z,0
2017-11-14T00:52:11.337Z,0
2017-11-14T00:52:51.861Z,0
2017-11-14T00:53:32.389Z,0
2017-11-14T00:54:12.895Z,0
2017-11-14T00:54:53.420Z,0
2017-11-14T00:55:33.937Z,0
2017-11-14T00:56:14.451Z,0
2017-11-14T00:56:54.956Z,0
2017-11-14T00:57:35.481Z,0
2017-11-14T00:58:16.000Z,0
2017-11-14T00:58:56.526Z,0
2017-11-14T00:59:37.058Z,0
2017-11-14T01:00:17.588Z,0
2017-11-14T01:00:58.105Z,0
2017-11-14T01:01:38.616Z,0
2017-11-14T01:02:19.114Z,0
2017-11-14T01:02:59.630Z,0
2017-11-14T01:03:40.136Z,0
2017-11-14T01:04:20.655Z,0
2017-11-14T01:05:01.189Z,0
2017-11-14T01:05:41.720Z,0
2017-11-14T01:06:22.252Z,0
2017-11-14T01:07:02.773Z,0
2017-11-14T01:07:43.293Z,0
2017-11-14T01:08:23.817Z,0
2017-11-14T01:09:04.340Z,0
2017-11-14T01:09:44.854Z,0
2017-11-14T01:10:25.370Z,0
2017-11-14T01:11:05.885Z,0
2017-11-14T01:11:46.409Z,0
2017-11-14T01:12:26.931Z,0
2017-11-14T01:13:07.441Z,0
2017-11-14T01:13:48.000Z,0
2017-11-14T01:14:28.504Z,0
2017-11-14T01:15:09.015Z,0
2017-11-14T01:15:49.530Z,0
2017-11-14T01:16:30.045Z,0
2017-11-14T01:17:10.586Z,0
2017-11-14T01:17:51.109Z,0
2017-11-14T01:18:31.640Z,0
2017-11-14T01:19:12.159Z,0
2017-11-14T01:19:52.687Z,0
2017-11-14T01:20:33.208Z,0
2017-11-14T01:21:13.741Z,0
2017-11-14T01:21:54.260Z,0
2017-11-14T01:22:34.794Z,0
2017-11-14T01:23:15.312Z,0
2017-11-14T01:23:55.842Z,0
2017-11-14T01:24:36.364Z,0
2017-11-14T01:25:16.885Z,0
2017-11-14T01:25:57.404Z,0
2017-11-14T01:26:37.956Z,0
2017-11-14T01:27:18.477Z,0
2017-11-14T01:27:58.997Z,0
2017-11-14T01:28:39.549Z,0
2017-11-14T01:29:20.068Z,0
2017-11-14T01:30:00.586Z,0
2017-11-14T01:30:41.096Z,0
2017-11-14T01:31:21.634Z,0
2017-11-14T01:32:02.168Z,0
2017-11-14T01:32:42.674Z,0
2017-11-14T01:33:23.197Z,0
2017-11-14T01:34:03.721Z,0
2017-11-14T01:34:44.234Z,0
2017-11-14T01:35:24.751Z,0
2017-11-14T01:36:05.284Z,0
2017-11-14T01:36:45.799Z,0
2017-11-14T01:37:26.326Z,0
2017-11-14T01:38:06.853Z,0
2017-11-14T01:38:47.375Z,0
2017-11-14T01:39:27.900Z,0
2017-11-14T01:40:08.439Z,0
2017-11-14T01:40:48.956Z,0
2017-11-14T01:41:29.515Z,0
2017-11-14T01:42:10.007Z,0
2017-11-14T01:42:50.538Z,0
2017-11-14T01:43:31.063Z,0
2017-11-14T01:44:11.588Z,0
2017-11-14T01:44:52.116Z,0
2017-11-14T01:45:32.651Z,0
2017-11-14T01:46:13.159Z,0
2017-11-14T01:46:53.673Z,0
2017-11-14T01:47:34.192Z,0
2017-11-14T01:48:14.705Z,0
2017-11-14T01:48:55.225Z,0
2017-11-14T01:49:35.742Z,0
2017-11-14T01:50:16.264Z,0
2017-11-14T01:50:56.785Z,0
2017-11-14T01:51:37.307Z,0
2017-11-14T01:52:17.826Z,0
2017-11-14T01:52:58.359Z,0
2017-11-14T01:53:38.887Z,0
2017-11-14T01:54:19.412Z,0
2017-11-14T01:54:59.923Z,0
2017-11-14T01:55:40.459Z,0
2017-11-14T01:56:20.981Z,0
2017-11-14T01:57:01.516Z,0
2017-11-14T01:57:42.039Z,0
2017-11-14T01:58:22.556Z,0
2017-11-14T01:59:03.063Z,0
2017-11-14T01:59:43.591Z,0
2017-11-14T02:00:24.121Z,0
2017-11-14T02:01:04.658Z,0
2017-11-14T02:01:45.201Z,0
2017-11-14T02:02:25.727Z,0
2017-11-14T02:03:06.235Z,0
2017-11-14T02:03:46.757Z,0
2017-11-14T02:04:27.268Z,0
2017-11-14T02:05:07.788Z,0
2017-11-14T02:05:48.315Z,0
2017-11-14T02:06:28.851Z,0
2017-11-14T02:07:09.381Z,0
2017-11-14T02:07:49.901Z,0
2017-11-14T02:08:30.408Z,0
2017-11-14T02:09:10.939Z,0
2017-11-14T02:09:51.458Z,0
2017-11-14T02:10:31.989Z,0
2017-11-14T02:11:12.515Z,0
2017-11-14T02:11:53.043Z,0
2017-11-14T02:12:33.566Z,0
2017-11-14T02:13:14.081Z,0
2017-11-14T02:13:54.616Z,0
2017-11-14T02:14:35.134Z,0
2017-11-14T02:15:15.653Z,0
2017-11-14T02:15:56.179Z,0
2017-11-14T02:16:36.715Z,0
2017-11-14T02:17:17.229Z,0
2017-11-14T02:17:57.755Z,0
2017-11-14T02:18:38.259Z,0
2017-11-14T02:19:18.790Z,0
2017-11-14T02:19:59.290Z,0
2017-11-14T02:20:39.813Z,0
2017-11-14T02:21:20.329Z,0
2017-11-14T02:22:00.835Z,0
2017-11-14T02:22:41.369Z,0
2017-11-14T02:23:21.883Z,0
2017-11-14T02:24:02.399Z,0
2017-11-14T02:24:42.917Z,0
2017-11-14T02:25:23.453Z,0
2017-11-14T02:26:03.969Z,0
2017-11-14T02:26:44.487Z,0
2017-11-14T02:27:25.019Z,0
2017-11-14T02:28:05.550Z,0
2017-11-14T02:28:46.074Z,0
2017-11-14T02:29:26.599Z,0
2017-11-14T02:30:07.121Z,0
2017-11-14T02:30:47.651Z,0
2017-11-14T02:31:28.169Z,0
2017-11-14T02:32:08.680Z,0
2017-11-14T02:32:49.225Z,0
2017-11-14T02:33:29.735Z,0
2017-11-14T02:34:10.254Z,0
2017-11-14T02:34:50.773Z,0
2017-11-14T02:35:31.305Z,0
2017-11-14T02:36:11.819Z,0
2017-11-14T02:36:52.336Z,0
2017-11-14T02:37:32.885Z,0
2017-11-14T02:38:13.439Z,0
2017-11-14T02:38:53.955Z,0
2017-11-14T02:39:34.471Z,0
2017-11-14T02:40:14.985Z,0
2017-11-14T02:40:55.497Z,0
2017-11-14T02:41:36.022Z,0
2017-11-14T02:42:16.539Z,0
2017-11-14T02:42:57.064Z,0
2017-11-14T02:43:37.585Z,0
2017-11-14T02:44:18.122Z,0
2017-11-14T02:44:58.621Z,0
2017-11-14T02:45:39.135Z,0
2017-11-14T02:46:19.649Z,0
2017-11-14T02:47:00.181Z,0
2017-11-14T02:47:40.702Z,0
2017-11-14T02:48:21.249Z,0
2017-11-14T02:49:01.776Z,0
2017-11-14T02:49:42.287Z,0
2017-11-14T02:50:22.831Z,0
2017-11-14T02:51:03.370Z,0
2017-11-14T02:51:43.904Z,0
2017-11-14T02:52:24.408Z,0
2017-11-14T02:53:04.939Z,0
2017-11-14T02:53:45.468Z,0
2017-11-14T02:54:26.008Z,0
2017-11-14T02:55:06.554Z,0
2017-11-14T02:55:47.067Z,0
2017-11-14T02:56:27.599Z,0
2017-11-14T02:57:08.124Z,0
2017-11-14T02:57:48.644Z,0
2017-11-14T02:58:29.156Z,0
2017-11-14T02:59:09.676Z,0
2017-11-14T02:59:50.196Z,0
2017-11-14T03:00:30.709Z,0
2017-11-14T03:01:11.225Z,0
2017-11-14T03:01:51.746Z,0
2017-11-14T03:02:32.263Z,0
2017-11-14T03:03:12.781Z,0
2017-11-14T03:03:53.308Z,0
2017-11-14T03:04:33.835Z,0
2017-11-14T03:05:14.349Z,0
2017-11-14T03:05:54.895Z,0
2017-11-14T03:06:35.410Z,0
2017-11-14T03:07:15.951Z,0
2017-11-14T03:07:56.469Z,0
2017-11-14T03:08:36.979Z,0
2017-11-14T03:09:17.514Z,0
2017-11-14T03:09:58.019Z,0
2017-11-14T03:10:38.532Z,0
2017-11-14T03:11:19.049Z,0
2017-11-14T03:11:59.565Z,0
2017-11-14T03:12:40.085Z,0
2017-11-14T03:13:20.624Z,0
2017-11-14T03:14:01.154Z,0
2017-11-14T03:14:41.690Z,0
2017-11-14T03:15:22.185Z,0
2017-11-14T03:16:02.686Z,0
2017-11-14T03:16:43.200Z,0
2017-11-14T03:17:23.705Z,0
2017-11-14T03:18:04.214Z,0
2017-11-14T03:18:44.745Z,0
2017-11-14T03:19:25.274Z,0
2017-11-14T03:20:05.804Z,0
2017-11-14T03:20:46.317Z,0
2017-11-14T03:21:26.843Z,0
2017-11-14T03:22:07.362Z,0
2017-11-14T03:22:47.887Z,0
2017-11-14T03:23:28.391Z,0
2017-11-14T03:24:08.907Z,0
2017-11-14T03:24:49.413Z,0
2017-11-14T03:25:29.938Z,0
2017-11-14T03:26:10.471Z,0
2017-11-14T03:26:50.992Z,0
2017-11-14T03:27:31.501Z,0
2017-11-14T03:28:12.030Z,0
2017-11-14T03:28:52.576Z,0
2017-11-14T03:29:33.083Z,0
2017-11-14T03:30:13.615Z,0
2017-11-14T03:30:54.143Z,0
2017-11-14T03:31:34.661Z,0
2017-11-14T03:32:15.175Z,0
2017-11-14T03:32:55.694Z,0
2017-11-14T03:33:36.216Z,0
2017-11-14T03:34:16.747Z,0
2017-11-14T03:34:57.255Z,0
2017-11-14T03:35:37.792Z,0
2017-11-14T03:36:18.312Z,0
2017-11-14T03:36:58.838Z,0
2017-11-14T03:37:39.361Z,0
2017-11-14T03:38:19.881Z,0
2017-11-14T03:39:00.397Z,0
2017-11-14T03:39:40.922Z,0
2017-11-14T03:40:21.443Z,0
2017-11-14T03:41:01.947Z,0
2017-11-14T03:41:42.454Z,0
2017-11-14T03:42:22.976Z,0
2017-11-14T03:43:03.494Z,0
2017-11-14T03:43:44.009Z,0
2017-11-14T03:44:24.541Z,0
2017-11-14T03:45:05.065Z,0
2017-11-14T03:45:45.589Z,0
2017-11-14T03:46:26.101Z,0
2017-11-14T03:47:06.650Z,0
2017-11-14T03:47:47.166Z,0
2017-11-14T03:48:27.679Z,0
2017-11-14T03:49:08.205Z,0
2017-11-14T03:49:48.727Z,0
2017-11-14T03:50:29.231Z,0
2017-11-14T03:51:09.742Z,0
2017-11-14T03:51:50.263Z,0
2017-11-14T03:52:30.797Z,0
2017-11-14T03:53:11.321Z,0
2017-11-14T03:53:51.836Z,0
2017-11-14T03:54:32.371Z,0
2017-11-14T03:55:12.901Z,0
2017-11-14T03:55:53.405Z,0
2017-11-14T03:56:33.915Z,0
2017-11-14T03:57:14.416Z,0
2017-11-14T03:57:54.947Z,0
2017-11-14T03:58:35.453Z,0
2017-11-14T03:59:15.962Z,0
2017-11-14T03:59:56.500Z,0
2017-11-14T04:00:37.033Z,0
2017-11-14T04:01:17.568Z,0
2017-11-14T04:01:58.099Z,0
2017-11-14T04:02:38.649Z,0
2017-11-14T04:03:19.162Z,0
2017-11-14T04:03:59.670Z,0
2017-11-14T04:04:40.181Z,0
2017-11-14T04:05:20.702Z,0
2017-11-14T04:06:01.216Z,0
2017-11-14T04:06:41.751Z,0
2017-11-14T04:07:22.267Z,0
2017-11-14T04:08:02.787Z,0
2017-11-14T04:08:43.311Z,0
2017-11-14T04:11:13.856Z,0
2017-11-14T04:11:54.368Z,0
2017-11-14T04:12:34.887Z,0
2017-11-14T04:13:15.463Z,0
2017-11-14T04:13:55.985Z,0
2017-11-14T04:14:36.508Z,0
2017-11-14T04:15:17.071Z,0
2017-11-14T04:15:57.538Z,0
2017-11-14T04:16:38.067Z,0
2017-11-14T04:17:18.572Z,0
2017-11-14T04:17:59.099Z,0
2017-11-14T04:18:39.631Z,0
2017-11-14T04:19:20.153Z,0
2017-11-14T04:20:00.658Z,0
2017-11-14T04:20:41.210Z,0
2017-11-14T04:21:21.707Z,0
2017-11-14T04:22:02.215Z,0
2017-11-14T04:22:42.740Z,0
2017-11-14T04:23:23.255Z,0
2017-11-14T04:24:03.757Z,0
2017-11-14T04:24:44.279Z,0
2017-11-14T04:25:24.806Z,0
2017-11-14T04:26:05.325Z,0
2017-11-14T04:26:45.831Z,0
2017-11-14T04:27:26.353Z,0
2017-11-14T04:28:06.851Z,0
2017-11-14T04:28:47.376Z,0
2017-11-14T04:29:27.873Z,0
2017-11-14T04:30:08.391Z,0
2017-11-14T04:30:48.902Z,0
2017-11-14T04:31:29.410Z,0
2017-11-14T04:32:09.939Z,0
2017-11-14T04:32:50.464Z,0
2017-11-14T04:33:30.980Z,0
2017-11-14T04:34:11.492Z,0
2017-11-14T04:34:52.020Z,0
2017-11-14T04:35:32.538Z,0
2017-11-14T04:36:13.041Z,0
2017-11-14T04:36:53.558Z,0
2017-11-14T04:37:34.090Z,0
2017-11-14T04:38:14.587Z,0
2017-11-14T04:38:55.106Z,0
2017-11-14T04:39:35.629Z,0
2017-11-14T04:40:16.153Z,0
2017-11-14T04:40:56.674Z,0
2017-11-14T04:41:37.189Z,0
2017-11-14T04:42:17.716Z,0
2017-11-14T04:42:58.233Z,0
2017-11-14T04:43:38.765Z,0
2017-11-14T04:44:20.199Z,0
2017-11-14T04:45:00.718Z,0
2017-11-14T04:45:41.254Z,0
2017-11-14T04:46:21.765Z,0
2017-11-14T04:47:02.292Z,0
2017-11-14T04:47:42.778Z,0
2017-11-14T04:48:23.307Z,0
2017-11-14T04:49:03.811Z,0
2017-11-14T04:49:44.322Z,0
2017-11-14T04:50:24.824Z,0
2017-11-14T04:51:05.375Z,0
2017-11-14T04:51:45.877Z,0
2017-11-14T04:52:26.408Z,0
2017-11-14T04:53:06.910Z,0
2017-11-14T04:53:47.450Z,0
2017-11-14T04:54:27.965Z,0
2017-11-14T04:55:08.470Z,0
2017-11-14T04:55:48.989Z,0
2017-11-14T04:56:29.512Z,0
2017-11-14T04:57:10.030Z,0
2017-11-14T04:57:50.555Z,0
2017-11-14T04:58:31.078Z,0
2017-11-14T04:59:11.696Z,0
2017-11-14T04:59:52.658Z,0
2017-11-14T05:00:33.181Z,0
2017-11-14T05:01:13.700Z,0
2017-11-14T05:01:54.211Z,0
2017-11-14T05:02:34.733Z,0
2017-11-14T05:03:15.253Z,0
2017-11-14T05:03:55.769Z,0
2017-11-14T05:04:36.284Z,0
2017-11-14T05:05:16.781Z,0
2017-11-14T05:05:57.301Z,0
2017-11-14T05:06:37.830Z,0
2017-11-14T05:07:18.351Z,0
2017-11-14T05:07:58.874Z,0
2017-11-14T05:08:39.378Z,0
2017-11-14T05:09:19.897Z,0
2017-11-14T05:10:00.404Z,0
2017-11-14T05:10:40.916Z,0
2017-11-14T05:11:21.435Z,0
2017-11-14T05:12:01.951Z,0
2017-11-14T05:12:42.469Z,0
2017-11-14T05:13:22.960Z,0
2017-11-14T05:14:03.529Z,0
2017-11-14T05:14:44.029Z,0
2017-11-14T05:15:24.531Z,0
2017-11-14T05:16:05.050Z,0
2017-11-14T05:16:45.570Z,0
2017-11-14T05:17:26.078Z,0
2017-11-14T05:18:06.601Z,0
2017-11-14T05:18:47.123Z,0
2017-11-14T05:19:27.671Z,0
2017-11-14T05:20:08.203Z,0
2017-11-14T05:20:48.724Z,0
2017-11-14T05:21:29.254Z,0
2017-11-14T05:22:09.777Z,0
2017-11-14T05:22:50.278Z,0
2017-11-14T05:23:30.814Z,0
2017-11-14T05:24:11.332Z,0
2017-11-14T05:24:51.869Z,0
2017-11-14T05:25:32.398Z,0
2017-11-14T05:26:12.883Z,0
2017-11-14T05:26:53.420Z,0
2017-11-14T05:27:33.935Z,0
2017-11-14T05:28:14.438Z,0
2017-11-14T05:28:54.951Z,0
2017-11-14T05:29:35.470Z,0
2017-11-14T05:30:15.994Z,0
2017-11-14T05:30:56.522Z,0
2017-11-14T05:31:37.042Z,0
2017-11-14T05:32:17.567Z,0
2017-11-14T05:32:58.085Z,0
2017-11-14T05:33:38.614Z,0
2017-11-14T05:34:19.141Z,0
2017-11-14T05:34:59.677Z,0
2017-11-14T05:35:40.189Z,0
2017-11-14T05:36:20.707Z,0
2017-11-14T05:37:01.242Z,0
2017-11-14T05:37:41.756Z,0
2017-11-14T05:38:22.286Z,0
2017-11-14T05:39:02.815Z,0
2017-11-14T05:39:43.408Z,0
2017-11-14T05:40:23.851Z,0
2017-11-14T05:41:04.451Z,0
2017-11-14T05:41:44.977Z,0
2017-11-14T05:42:25.500Z,0
2017-11-14T05:43:06.028Z,0
2017-11-14T05:43:46.549Z,0
2017-11-14T05:44:27.078Z,0
2017-11-14T05:45:07.596Z,0
2017-11-14T05:45:48.126Z,0
2017-11-14T05:46:28.648Z,0
2017-11-14T05:47:09.167Z,0
2017-11-14T05:47:49.700Z,0
2017-11-14T05:48:30.218Z,0
2017-11-14T05:49:10.740Z,0
2017-11-14T05:49:51.262Z,0
2017-11-14T05:50:31.798Z,0
2017-11-14T05:51:12.333Z,0
2017-11-14T05:51:52.857Z,0
2017-11-14T05:52:33.393Z,0
2017-11-14T05:53:13.928Z,0
2017-11-14T05:53:54.445Z,0
2017-11-14T05:54:34.970Z,0
2017-11-14T05:55:15.510Z,0
2017-11-14T05:55:56.040Z,0
2017-11-14T05:56:36.547Z,0
2017-11-14T05:57:17.092Z,0
2017-11-14T05:57:57.610Z,0
2017-11-14T05:58:38.123Z,0
2017-11-14T05:59:18.654Z,0
2017-11-14T05:59:59.184Z,0
2017-11-14T06:00:39.721Z,0
2017-11-14T06:01:20.216Z,0
2017-11-14T06:02:00.754Z,0
2017-11-14T06:02:41.267Z,0
2017-11-14T06:03:21.797Z,0
2017-11-14T06:04:02.309Z,0
2017-11-14T06:04:42.835Z,0
2017-11-14T06:05:23.337Z,0
2017-11-14T06:06:03.861Z,0
2017-11-14T06:06:44.389Z,0
2017-11-14T06:07:24.902Z,0
2017-11-14T06:08:05.457Z,0
2017-11-14T06:08:45.983Z,0
2017-11-14T06:09:26.512Z,0
2017-11-14T06:10:07.054Z,0
2017-11-14T06:10:47.554Z,0
2017-11-14T06:11:28.068Z,0
2017-11-14T06:12:08.583Z,0
2017-11-14T06:12:49.106Z,0
2017-11-14T06:13:29.626Z,0
2017-11-14T06:14:10.142Z,0
2017-11-14T06:14:50.671Z,0
2017-11-14T06:15:31.190Z,4
2017-11-14T06:16:11.712Z,0
2017-11-14T06:16:52.246Z,0
2017-11-14T06:17:32.771Z,4
2017-11-14T06:18:13.300Z,4
2017-11-14T06:18:53.822Z,0
2017-11-14T06:19:34.336Z,4
2017-11-14T06:20:14.867Z,4
2017-11-14T06:20:55.375Z,4
2017-11-14T06:21:35.898Z,4
2017-11-14T06:22:16.418Z,4
2017-11-14T06:22:56.936Z,8
2017-11-14T06:23:37.468Z,4
2017-11-14T06:24:17.997Z,8
2017-11-14T06:24:58.520Z,4
2017-11-14T06:25:39.051Z,8
2017-11-14T06:26:19.578Z,12
2017-11-14T06:27:00.108Z,12
2017-11-14T06:27:40.643Z,8
2017-11-14T06:28:21.168Z,12
2017-11-14T06:29:01.692Z,12
2017-11-14T06:29:42.228Z,16
2017-11-14T06:30:22.728Z,16
2017-11-14T06:31:03.254Z,16
2017-11-14T06:31:43.778Z,20
2017-11-14T06:32:24.282Z,20
2017-11-14T06:33:04.817Z,24
2017-11-14T06:33:45.365Z,24
2017-11-14T06:34:25.887Z,28
2017-11-14T06:35:06.418Z,32
2017-11-14T06:35:46.946Z,36
2017-11-14T06:36:27.471Z,36
2017-11-14T06:37:07.987Z,40
2017-11-14T06:37:48.517Z,40
2017-11-14T06:38:29.049Z,44
2017-11-14T06:39:09.573Z,48
2017-11-14T06:39:50.099Z,52
2017-11-14T06:40:30.625Z,52
2017-11-14T06:41:11.149Z,60
2017-11-14T06:41:51.678Z,64
2017-11-14T06:42:32.197Z,76
2017-11-14T06:43:12.718Z,76
2017-11-14T06:43:53.239Z,84
2017-11-14T06:44:33.739Z,88
2017-11-14T06:45:14.268Z,88
2017-11-14T06:45:54.815Z,96
2017-11-14T06:46:35.368Z,100
2017-11-14T06:47:15.866Z,108
2017-11-14T06:47:56.391Z,116
2017-11-14T06:48:36.915Z,120
2017-11-14T06:49:17.444Z,132
2017-11-14T06:49:57.964Z,132
2017-11-14T06:50:38.590Z,144
2017-11-14T06:51:19.105Z,156
2017-11-14T06:51:59.607Z,164
2017-11-14T06:52:40.135Z,168
2017-11-14T06:53:20.676Z,176
2017-11-14T06:54:01.173Z,176
2017-11-14T06:54:41.699Z,192
2017-11-14T06:55:22.211Z,192
2017-11-14T06:56:02.746Z,204
2017-11-14T06:56:43.266Z,220
2017-11-14T06:57:23.782Z,232
2017-11-14T06:58:04.315Z,228
2017-11-14T06:58:44.843Z,244
2017-11-14T06:59:25.359Z,252
2017-11-14T07:00:05.891Z,252
2017-11-14T07:00:46.390Z,256
2017-11-14T07:01:26.934Z,260
2017-11-14T07:02:07.460Z,272
2017-11-14T07:02:47.974Z,280
2017-11-14T07:03:28.501Z,288
2017-11-14T07:04:09.071Z,296
2017-11-14T07:04:49.582Z,304
2017-11-14T07:05:30.096Z,320
2017-11-14T07:06:10.628Z,320
2017-11-14T07:06:51.162Z,332
2017-11-14T07:07:31.690Z,348
2017-11-14T07:08:12.203Z,356
2017-11-14T07:08:52.726Z,360
2017-11-14T07:09:33.262Z,376
2017-11-14T07:10:13.777Z,392
2017-11-14T07:10:54.289Z,416
2017-11-14T07:11:34.827Z,468
2017-11-14T07:12:15.364Z,464
2017-11-14T07:12:55.895Z,496
2017-11-14T07:13:36.427Z,508
2017-11-14T07:14:16.955Z,576
2017-11-14T07:14:57.481Z,600
2017-11-14T07:15:37.996Z,596
2017-11-14T07:16:18.550Z,636
2017-11-14T07:16:59.075Z,648
2017-11-14T07:17:39.595Z,680
2017-11-14T07:18:20.113Z,660
2017-11-14T07:19:00.627Z,736
2017-11-14T07:19:41.149Z,820
2017-11-14T07:20:21.676Z,820
2017-11-14T07:21:02.205Z,768
2017-11-14T07:21:42.728Z,752
2017-11-14T07:22:23.234Z,772
2017-11-14T07:23:03.760Z,804
2017-11-14T07:23:44.267Z,820
2017-11-14T07:24:24.796Z,832
2017-11-14T07:25:05.340Z,900
2017-11-14T07:25:45.872Z,876
2017-11-14T07:26:26.403Z,920
2017-11-14T07:27:06.936Z,896
2017-11-14T07:27:47.452Z,900
2017-11-14T07:28:27.990Z,920
2017-11-14T07:29:08.514Z,1008
2017-11-14T07:29:49.033Z,1024
2017-11-14T07:30:29.542Z,1056
2017-11-14T07:31:10.051Z,1132
2017-11-14T07:31:50.592Z,1136
2017-11-14T07:32:31.110Z,1228
2017-11-14T07:33:11.644Z,1520
2017-11-14T07:33:52.180Z,1488
2017-11-14T07:34:32.701Z,1376
2017-11-14T07:35:13.224Z,1304
2017-11-14T07:35:53.742Z,1424
2017-11-14T07:36:34.272Z,1264
2017-11-14T07:37:14.785Z,1188
2017-11-14T07:37:55.313Z,1308
2017-11-14T07:38:35.892Z,1548
2017-11-14T07:39:16.365Z,1424
2017-11-14T07:39:56.901Z,1748
2017-11-14T07:40:37.405Z,1600
2017-11-14T07:41:17.927Z,1592
2017-11-14T07:41:58.457Z,1648
2017-11-14T07:42:38.959Z,1660
2017-11-14T07:43:19.486Z,1956
2017-11-14T07:44:00.006Z,1908
2017-11-14T07:44:40.519Z,1884
2017-11-14T07:45:21.045Z,2168
2017-11-14T07:46:01.570Z,2464
2017-11-14T07:46:42.078Z,2444
2017-11-14T07:47:22.593Z,2668
2017-11-14T07:48:03.125Z,2500
2017-11-14T07:48:43.647Z,2644
2017-11-14T07:49:24.159Z,2584
2017-11-14T07:50:04.695Z,2668
2017-11-14T07:50:45.229Z,2772
2017-11-14T07:51:25.750Z,2624
2017-11-14T07:52:06.268Z,2456
2017-11-14T07:52:46.797Z,2968
2017-11-14T07:53:27.320Z,3040
2017-11-14T07:54:07.849Z,2864
2017-11-14T07:54:48.368Z,3028
2017-11-14T07:55:28.931Z,3368
2017-11-14T07:56:09.442Z,3188
2017-11-14T07:56:49.982Z,3504
2017-11-14T07:57:30.511Z,3616
2017-11-14T07:58:11.038Z,3592
2017-11-14T07:58:51.560Z,3688
2017-11-14T07:59:32.094Z,3632
2017-11-14T08:00:12.607Z,3772
2017-11-14T08:00:53.124Z,3556
2017-11-14T08:01:33.651Z,3676
2017-11-14T08:02:14.191Z,3804
2017-11-14T08:02:54.698Z,3996
2017-11-14T08:03:35.211Z,3684
2017-11-14T08:04:15.751Z,4424
2017-11-14T08:04:56.270Z,4324
2017-11-14T08:05:36.798Z,4316
2017-11-14T08:06:17.325Z,3752
2017-11-14T08:06:57.852Z,3692
2017-11-14T08:07:38.386Z,3672
2017-11-14T08:08:18.903Z,3456
2017-11-14T08:08:59.427Z,3412
2017-11-14T08:09:39.954Z,3352
2017-11-14T08:10:20.487Z,3372
2017-11-14T08:11:01.016Z,3392
2017-11-14T08:11:41.539Z,3452
2017-11-14T08:12:22.073Z,3424
2017-11-14T08:13:02.596Z,3432
2017-11-14T08:13:43.132Z,3460
2017-11-14T08:14:23.663Z,3540
2017-11-14T08:15:04.187Z,3556
2017-11-14T08:15:44.715Z,3452
2017-11-14T08:16:25.246Z,3344
2017-11-14T08:17:05.774Z,3472
2017-11-14T08:17:46.304Z,3712
2017-11-14T08:18:26.826Z,3904
2017-11-14T08:19:07.353Z,4020
2017-11-14T08:19:47.890Z,4064
2017-11-14T08:20:28.462Z,4104
2017-11-14T08:21:09.006Z,4072
2017-11-14T08:21:49.538Z,3992
2017-11-14T08:22:30.072Z,3992
2017-11-14T08:23:10.572Z,4020
2017-11-14T08:23:51.115Z,4152
2017-11-14T08:24:31.643Z,4308
2017-11-14T08:25:12.168Z,4316
2017-11-14T08:25:52.769Z,4108
2017-11-14T08:26:33.232Z,3936
2017-11-14T08:27:13.765Z,3864
2017-11-14T08:27:54.306Z,3860
2017-11-14T08:28:34.836Z,4052
2017-11-14T08:29:15.367Z,4052
2017-11-14T08:29:55.870Z,3916
2017-11-14T08:30:36.402Z,3860
2017-11-14T08:31:16.897Z,3860
2017-11-14T08:31:57.429Z,3960
2017-11-14T08:32:37.972Z,3992
2017-11-14T08:33:18.488Z,3852
2017-11-14T08:33:59.002Z,3720
2017-11-14T08:34:39.528Z,3652
2017-11-14T08:35:20.037Z,3676
2017-11-14T08:36:00.562Z,3812
2017-11-14T08:36:41.081Z,3984
2017-11-14T08:37:21.587Z,4152
2017-11-14T08:38:02.115Z,4328
2017-11-14T08:38:42.641Z,4552
2017-11-14T08:39:23.158Z,4780
2017-11-14T08:40:03.718Z,4984
2017-11-14T08:40:44.243Z,5152
2017-11-14T08:41:24.786Z,5308
2017-11-14T08:42:05.309Z,5472
2017-11-14T08:42:45.839Z,5548
2017-11-14T08:43:26.338Z,5628
2017-11-14T08:44:06.844Z,5668
2017-11-14T08:44:47.375Z,5784
2017-11-14T08:45:27.913Z,5920
2017-11-14T08:46:08.434Z,5996
2017-11-14T08:46:48.960Z,6180
2017-11-14T08:47:29.477Z,6456
2017-11-14T08:48:10.010Z,7004
2017-11-14T08:48:50.536Z,8420
2017-11-14T08:49:31.052Z,8412
2017-11-14T08:50:11.581Z,8428
2017-11-14T08:50:52.114Z,8480
2017-11-14T08:51:32.631Z,8860
2017-11-14T08:52:13.160Z,11036
2017-11-14T08:52:53.690Z,9568
2017-11-14T08:53:34.250Z,8336
2017-11-14T08:54:14.786Z,7168
2017-11-14T08:54:55.298Z,6836
2017-11-14T08:55:35.835Z,6768
2017-11-14T08:56:16.344Z,6884
2017-11-14T08:56:56.883Z,6972
2017-11-14T08:57:37.413Z,6828
2017-11-14T08:58:17.944Z,6596
2017-11-14T08:58:58.483Z,6784
2017-11-14T08:59:38.993Z,7172
2017-11-14T09:00:19.532Z,7360
2017-11-14T09:01:00.045Z,8140
2017-11-14T09:01:40.569Z,9988
2017-11-14T09:02:21.099Z,11600
2017-11-14T09:03:01.633Z,12628
2017-11-14T09:03:42.164Z,12052
2017-11-14T09:04:22.689Z,11124
2017-11-14T09:05:03.216Z,11852
2017-11-14T09:05:43.744Z,11696
2017-11-14T09:06:24.301Z,14720
2017-11-14T09:07:04.802Z,17312
2017-11-14T09:07:45.341Z,15648
2017-11-14T09:08:25.859Z,12408
2017-11-14T09:09:06.386Z,12224
2017-11-14T09:09:46.923Z,11744
2017-11-14T09:10:27.452Z,9736
2017-11-14T09:11:07.950Z,9268
2017-11-14T09:11:48.485Z,8908
2017-11-14T09:12:29.016Z,9272
2017-11-14T09:13:09.533Z,9940
2017-11-14T09:13:50.053Z,12980
2017-11-14T09:14:30.585Z,16128
2017-11-14T09:15:11.110Z,16960
2017-11-14T09:15:51.623Z,17088
2017-11-14T09:16:32.143Z,17312
2017-11-14T09:17:12.688Z,16704
2017-11-14T09:17:53.222Z,16416
2017-11-14T09:18:33.746Z,15360
2017-11-14T09:19:14.256Z,13376
2017-11-14T09:19:54.798Z,12316
2017-11-14T09:20:35.316Z,11508
2017-11-14T09:21:15.854Z,11208
2017-11-14T09:21:56.360Z,10652
2017-11-14T09:22:36.895Z,9472
2017-11-14T09:23:17.436Z,9216
2017-11-14T09:23:57.943Z,8824
2017-11-14T09:24:38.470Z,8624
2017-11-14T09:25:18.998Z,8004
2017-11-14T09:25:59.559Z,5364
2017-11-14T09:26:40.049Z,4772
2017-11-14T09:27:20.589Z,4576
2017-11-14T09:28:01.107Z,4196
2017-11-14T09:28:41.657Z,3748
2017-11-14T09:29:22.177Z,3648
2017-11-14T09:30:02.716Z,3632
2017-11-14T09:30:43.245Z,3424
2017-11-14T09:31:23.756Z,3336
2017-11-14T09:32:04.297Z,3300
2017-11-14T09:32:44.829Z,3196
2017-11-14T09:33:25.355Z,3156
2017-11-14T09:34:05.869Z,3348
2017-11-14T09:34:46.402Z,3544
2017-11-14T09:35:26.933Z,4032
2017-11-14T09:36:07.456Z,4636
2017-11-14T09:36:48.001Z,5280
2017-11-14T09:37:28.515Z,5928
2017-11-14T09:38:09.061Z,7348
2017-11-14T09:38:49.574Z,8172
2017-11-14T09:39:30.110Z,8608
2017-11-14T09:40:10.623Z,8492
2017-11-14T09:40:51.144Z,7208
2017-11-14T09:41:31.669Z,6908